createdAt,value
2018-12-19T00:01:41.214Z,72.64
2018-12-19T00:04:10.810Z,71.54
2018-12-19T00:06:39.554Z,71.69
2018-12-19T00:09:10.587Z,71.58
2018-12-19T00:11:39.887Z,72.96
2018-12-19T00:14:10.081Z,72.14
2018-12-19T00:16:38.585Z,72.16
2018-12-19T00:19:07.733Z,72.50
2018-12-19T00:21:37.810Z,71.57
2018-12-19T00:24:07.254Z,70.90
2018-12-19T00:26:36.384Z,71.11
2018-12-19T00:29:05.483Z,71.06
2018-12-19T00:31:35.907Z,69.89
2018-12-19T00:34:05.540Z,70.43
2018-12-19T00:36:34.598Z,71.70
2018-12-19T00:39:09.396Z,71.54
2018-12-19T00:41:36.482Z,71.26
2018-12-19T00:44:06.102Z,70.05
2018-12-19T00:46:36.311Z,69.39
2018-12-19T00:49:07.598Z,70.54
2018-12-19T00:51:42.491Z,70.87
2018-12-19T00:54:13.537Z,70.45
2018-12-19T00:56:42.778Z,70.22
2018-12-19T00:59:13.790Z,70.21
2018-12-19T01:01:43.976Z,69.37
2018-12-19T01:04:14.379Z,69.84
2018-12-19T01:06:45.051Z,70.68
2018-12-19T01:09:16.788Z,71.19
2018-12-19T01:11:46.461Z,70.41
2018-12-19T01:14:14.962Z,70.15
2018-12-19T01:16:44.286Z,69.43
2018-12-19T01:19:14.860Z,70.65
2018-12-19T01:21:45.459Z,70.86
2018-12-19T01:24:15.279Z,70.24
2018-12-19T01:26:45.335Z,70.13
2018-12-19T01:29:16.278Z,69.41
2018-12-19T01:31:45.706Z,70.32
2018-12-19T01:34:15.720Z,69.87
2018-12-19T01:36:45.226Z,69.51
2018-12-19T01:39:14.561Z,70.29
2018-12-19T01:41:44.564Z,69.02
2018-12-19T01:44:15.830Z,70.27
2018-12-19T01:46:44.996Z,70.33
2018-12-19T01:49:15.147Z,69.90
2018-12-19T01:51:44.504Z,69.37
2018-12-19T01:54:13.016Z,69.82
2018-12-19T01:56:44.049Z,69.33
2018-12-19T01:59:14.702Z,66.94
2018-12-19T02:01:43.754Z,68.51
2018-12-19T02:04:12.773Z,68.26
2018-12-19T02:06:41.227Z,66.37
2018-12-19T02:09:11.350Z,67.21
2018-12-19T02:11:41.437Z,66.48
2018-12-19T02:14:11.997Z,66.89
2018-12-19T02:16:40.790Z,65.16
2018-12-19T02:19:13.178Z,63.87
2018-12-19T02:21:41.690Z,65.07
2018-12-19T02:24:11.270Z,64.04
2018-12-19T02:26:40.025Z,65.96
2018-12-19T02:29:09.986Z,65.22
2018-12-19T02:31:40.539Z,65.94
2018-12-19T02:34:16.230Z,65.01
2018-12-19T02:36:47.876Z,66.43
2018-12-19T02:39:17.597Z,66.00
2018-12-19T02:41:47.674Z,64.94
2018-12-19T02:44:17.720Z,63.54
2018-12-19T02:46:46.296Z,63.72
2018-12-19T02:49:16.721Z,64.08
2018-12-19T02:51:46.881Z,64.14
2018-12-19T02:54:16.551Z,62.67
2018-12-19T02:56:46.979Z,62.26
2018-12-19T02:59:16.732Z,62.61
2018-12-19T03:01:47.146Z,61.21
2018-12-19T03:04:16.807Z,63.24
2018-12-19T03:06:46.921Z,63.40
2018-12-19T03:09:17.971Z,63.52
2018-12-19T03:11:47.988Z,63.28
2018-12-19T03:14:18.179Z,65.45
2018-12-19T03:16:48.996Z,66.43
2018-12-19T03:19:19.201Z,65.64
2018-12-19T03:21:49.379Z,66.00
2018-12-19T03:24:18.722Z,66.63
2018-12-19T03:26:48.188Z,66.21
2018-12-19T03:29:20.318Z,65.96
2018-12-19T03:31:50.382Z,65.69
2018-12-19T03:34:20.354Z,66.82
2018-12-19T03:36:50.518Z,67.54
2018-12-19T03:39:22.141Z,67.45
2018-12-19T03:41:51.192Z,66.95
2018-12-19T03:44:21.977Z,66.61
2018-12-19T03:46:52.213Z,65.30
2018-12-19T03:49:23.202Z,64.95
2018-12-19T03:51:54.381Z,64.82
2018-12-19T03:54:23.862Z,65.34
2018-12-19T03:56:55.015Z,66.47
2018-12-19T03:59:28.098Z,65.47
2018-12-19T04:01:58.034Z,66.05
2018-12-19T04:04:28.567Z,65.55
2018-12-19T04:07:00.476Z,66.30
2018-12-19T04:09:29.256Z,65.45
2018-12-19T04:11:58.871Z,66.05
2018-12-19T04:14:28.137Z,66.36
2018-12-19T04:16:57.647Z,65.93
2018-12-19T04:19:28.346Z,66.35
2018-12-19T04:21:56.814Z,66.55
2018-12-19T04:24:29.848Z,65.55
2018-12-19T04:26:59.573Z,65.60
2018-12-19T04:29:28.398Z,65.75
2018-12-19T04:31:58.690Z,66.36
2018-12-19T04:34:28.508Z,66.50
2018-12-19T04:36:57.170Z,67.15
2018-12-19T04:39:27.604Z,66.79
2018-12-19T04:41:57.094Z,66.80
2018-12-19T04:44:26.675Z,66.86
2018-12-19T04:46:57.108Z,65.80
2018-12-19T04:49:26.308Z,65.79
2018-12-19T04:51:55.862Z,65.65
2018-12-19T04:54:24.352Z,66.70
2018-12-19T04:56:53.720Z,66.46
2018-12-19T04:59:25.400Z,66.40
2018-12-19T05:01:56.665Z,66.12
2018-12-19T05:04:27.211Z,66.03
2018-12-19T05:06:55.787Z,65.57
2018-12-19T05:09:26.866Z,66.11
2018-12-19T05:11:56.862Z,65.48
2018-12-19T05:14:25.978Z,66.34
2018-12-19T05:16:55.126Z,65.23
2018-12-19T05:19:23.774Z,64.77
2018-12-19T05:21:52.239Z,65.48
2018-12-19T05:24:22.107Z,64.84
2018-12-19T05:26:56.734Z,65.12
2018-12-19T05:29:25.420Z,65.31
2018-12-19T05:31:55.065Z,66.45
2018-12-19T05:34:24.595Z,64.48
2018-12-19T05:36:54.733Z,64.80
2018-12-19T05:39:24.970Z,65.57
2018-12-19T05:41:53.597Z,65.74
2018-12-19T05:44:22.532Z,66.14
2018-12-19T05:46:51.287Z,66.40
2018-12-19T05:49:20.978Z,66.89
2018-12-19T05:51:50.365Z,66.14
2018-12-19T05:54:18.886Z,66.49
2018-12-19T05:56:48.185Z,66.21
2018-12-19T05:59:17.466Z,65.87
2018-12-19T06:01:46.654Z,65.53
2018-12-19T06:04:17.701Z,65.87
2018-12-19T06:06:47.579Z,65.81
2018-12-19T06:09:17.186Z,66.14
2018-12-19T06:11:47.427Z,64.51
2018-12-19T06:14:19.504Z,65.74
2018-12-19T06:16:48.974Z,65.71
2018-12-19T06:19:18.091Z,66.13
2018-12-19T06:21:47.634Z,64.69
2018-12-19T06:24:18.740Z,66.10
2018-12-19T06:26:50.269Z,65.16
2018-12-19T06:29:19.702Z,65.26
2018-12-19T06:31:49.816Z,66.43
2018-12-19T06:34:20.049Z,66.74
2018-12-19T06:36:49.469Z,67.80
2018-12-19T06:39:20.183Z,67.06
2018-12-19T06:41:52.012Z,66.70
2018-12-19T06:44:21.571Z,67.78
2018-12-19T06:46:50.646Z,67.29
2018-12-19T06:49:20.887Z,66.89
2018-12-19T06:51:49.793Z,64.97
2018-12-19T06:54:18.314Z,64.04
2018-12-19T06:56:50.017Z,64.47
2018-12-19T06:59:19.933Z,65.47
2018-12-19T07:01:49.220Z,65.64
2018-12-19T07:04:17.782Z,66.79
2018-12-19T07:06:49.522Z,66.13
2018-12-19T07:09:19.960Z,67.61
2018-12-19T07:11:49.394Z,67.64
2018-12-19T07:14:19.875Z,68.64
2018-12-19T07:16:50.695Z,66.86
2018-12-19T07:19:21.685Z,65.63
2018-12-19T07:21:51.616Z,64.75
2018-12-19T07:24:20.666Z,65.06
2018-12-19T07:26:49.423Z,65.08
2018-12-19T07:29:18.376Z,66.61
2018-12-19T07:31:50.571Z,66.79
2018-12-19T07:34:20.518Z,69.01
2018-12-19T07:36:49.935Z,68.05
2018-12-19T07:39:19.130Z,66.65
2018-12-19T07:41:48.554Z,66.58
2018-12-19T07:44:18.138Z,66.76
2018-12-19T07:46:47.158Z,66.09
2018-12-19T07:49:22.418Z,66.50
2018-12-19T07:51:52.373Z,64.29
2018-12-19T07:54:22.198Z,63.26
2018-12-19T07:56:55.613Z,64.47
2018-12-19T07:59:25.228Z,63.88
2018-12-19T08:01:54.242Z,65.33
2018-12-19T08:04:23.698Z,65.39
2018-12-19T08:06:52.521Z,65.40
2018-12-19T08:09:21.207Z,64.87
2018-12-19T08:11:52.067Z,64.36
2018-12-19T08:14:22.127Z,63.31
2018-12-19T08:16:51.620Z,64.79
2018-12-19T08:19:21.897Z,65.00
2018-12-19T08:21:52.108Z,63.49
2018-12-19T08:24:21.276Z,65.30
2018-12-19T08:26:58.834Z,64.89
2018-12-19T08:29:27.306Z,65.87
2018-12-19T08:31:56.344Z,65.81
2018-12-19T08:34:25.121Z,66.77
2018-12-19T08:36:55.937Z,67.39
2018-12-19T08:39:25.562Z,69.27
2018-12-19T08:41:54.296Z,67.45
2018-12-19T08:44:24.427Z,68.37
2018-12-19T08:46:53.361Z,67.20
2018-12-19T08:49:21.981Z,67.89
2018-12-19T08:51:52.352Z,67.64
2018-12-19T08:54:22.235Z,67.51
2018-12-19T08:56:51.063Z,67.94
2018-12-19T08:59:20.521Z,67.07
2018-12-19T09:01:50.794Z,65.14
2018-12-19T09:04:25.824Z,65.64
2018-12-19T09:06:52.760Z,66.09
2018-12-19T09:09:22.318Z,67.34
2018-12-19T09:11:51.588Z,65.51
2018-12-19T09:14:22.960Z,67.31
2018-12-19T09:16:52.960Z,66.18
2018-12-19T09:20:52.491Z,66.03
2018-12-19T09:23:22.031Z,64.34
2018-12-19T09:25:52.934Z,64.44
2018-12-19T09:28:22.925Z,64.66
2018-12-19T09:30:53.302Z,63.87
2018-12-19T09:33:27.495Z,64.77
2018-12-19T09:35:57.105Z,64.39
2018-12-19T09:38:27.577Z,64.87
2018-12-19T09:40:57.243Z,65.03
2018-12-19T09:43:25.787Z,63.79
2018-12-19T09:45:54.264Z,64.13
2018-12-19T09:48:24.406Z,65.69
2018-12-19T09:50:53.887Z,66.82
2018-12-19T09:53:23.499Z,67.37
2018-12-19T09:55:54.203Z,66.60
2018-12-19T09:58:23.263Z,67.37
2018-12-19T10:00:52.728Z,65.04
2018-12-19T10:03:22.624Z,65.86
2018-12-19T10:05:54.966Z,67.72
2018-12-19T10:08:25.025Z,68.91
2018-12-19T10:10:56.858Z,69.43
2018-12-19T10:13:28.425Z,69.45
2018-12-19T10:15:58.450Z,70.62
2018-12-19T10:18:27.446Z,70.76
2018-12-19T10:20:57.648Z,72.33
2018-12-19T10:23:26.269Z,71.56
2018-12-19T10:26:01.011Z,72.36
2018-12-19T10:28:35.492Z,73.05
2018-12-19T10:31:06.140Z,72.25
2018-12-19T10:33:39.518Z,71.76
2018-12-19T10:36:08.556Z,71.61
2018-12-19T10:38:37.214Z,72.18
2018-12-19T10:41:06.754Z,70.92
2018-12-19T10:43:35.911Z,71.99
2018-12-19T10:46:05.343Z,71.44
2018-12-19T10:48:42.892Z,72.85
2018-12-19T10:51:12.598Z,72.69
2018-12-19T10:53:41.497Z,74.33
2018-12-19T10:56:14.375Z,74.36
2018-12-19T10:58:44.799Z,74.79
2018-12-19T11:01:13.378Z,75.29
2018-12-19T11:03:43.575Z,74.22
2018-12-19T11:06:12.384Z,74.50
2018-12-19T11:08:41.526Z,73.13
2018-12-19T11:11:12.571Z,73.77
2018-12-19T11:13:42.048Z,74.34
2018-12-19T11:16:11.315Z,76.62
2018-12-19T11:18:40.719Z,77.11
2018-12-19T11:21:09.481Z,76.92
2018-12-19T11:23:39.207Z,76.63
2018-12-19T11:26:09.922Z,77.28
2018-12-19T11:28:44.630Z,77.51
2018-12-19T11:31:13.666Z,77.70
2018-12-19T11:33:43.270Z,78.20
2018-12-19T11:36:14.867Z,77.70
2018-12-19T11:38:45.020Z,77.94
2018-12-19T11:41:14.563Z,78.77
2018-12-19T11:43:43.265Z,77.79
2018-12-19T11:46:12.425Z,77.03
2018-12-19T11:48:41.995Z,77.46
2018-12-19T11:51:13.540Z,76.60
2018-12-19T11:53:42.230Z,77.74
2018-12-19T11:56:11.741Z,77.25
2018-12-19T11:58:40.993Z,76.77
2018-12-19T12:01:10.319Z,77.03
2018-12-19T12:03:41.813Z,76.34
2018-12-19T12:06:10.964Z,76.15
2018-12-19T12:08:40.162Z,76.34
2018-12-19T12:11:12.697Z,74.65
2018-12-19T12:13:43.529Z,75.33
2018-12-19T12:16:12.305Z,75.84
2018-12-19T12:18:42.257Z,74.32
2018-12-19T12:21:10.784Z,75.97
2018-12-19T12:23:47.149Z,77.32
2018-12-19T12:26:12.050Z,78.00
2018-12-19T12:28:42.240Z,78.29
2018-12-19T12:31:12.137Z,76.80
2018-12-19T12:33:42.646Z,77.16
2018-12-19T12:36:11.266Z,76.37
2018-12-19T12:38:40.455Z,76.03
2018-12-19T12:41:10.427Z,75.57
2018-12-19T12:43:40.295Z,76.61
2018-12-19T12:46:09.072Z,75.43
2018-12-19T12:48:39.718Z,74.92
2018-12-19T12:51:09.623Z,75.13
2018-12-19T12:53:39.165Z,74.00
2018-12-19T12:56:10.151Z,71.75
2018-12-19T12:58:38.988Z,68.17
2018-12-19T13:01:11.833Z,70.73
2018-12-19T13:03:48.074Z,70.73
2018-12-19T13:06:18.307Z,70.65
2018-12-19T13:08:48.515Z,71.50
2018-12-19T13:11:18.030Z,72.25
2018-12-19T13:13:47.370Z,71.49
2018-12-19T13:16:17.878Z,69.03
2018-12-19T13:19:17.280Z,68.52
2018-12-19T13:21:47.059Z,67.46
2018-12-19T13:24:16.725Z,68.55
2018-12-19T13:26:46.546Z,70.88
2018-12-19T13:29:16.602Z,72.45
2018-12-19T13:31:47.075Z,72.72
2018-12-19T13:34:17.186Z,74.83
2018-12-19T13:36:45.782Z,76.22
2018-12-19T13:39:18.829Z,76.25
2018-12-19T13:41:48.490Z,77.29
2018-12-19T13:44:18.205Z,76.07
2018-12-19T13:46:49.108Z,75.91
2018-12-19T13:49:18.973Z,76.35
2018-12-19T13:51:48.209Z,77.30
2018-12-19T13:54:16.830Z,76.39
2018-12-19T13:57:48.477Z,76.70
2018-12-19T14:00:21.578Z,75.26
2018-12-19T14:02:51.047Z,76.54
2018-12-19T14:05:20.097Z,77.04
2018-12-19T14:07:48.698Z,75.94
2018-12-19T14:10:18.648Z,72.92
2018-12-19T14:12:48.723Z,73.57
2018-12-19T14:15:18.960Z,73.37
2018-12-19T14:17:47.715Z,75.29
2018-12-19T14:20:16.489Z,75.08
2018-12-19T14:22:45.627Z,74.77
2018-12-19T14:25:16.171Z,75.90
2018-12-19T14:27:45.266Z,75.66
2018-12-19T14:30:15.117Z,75.61
2018-12-19T14:32:46.860Z,76.64
2018-12-19T14:35:19.377Z,76.26
2018-12-19T14:37:49.445Z,77.28
2018-12-19T14:40:20.520Z,77.58
2018-12-19T14:42:50.500Z,76.67
2018-12-19T14:45:21.622Z,76.28
2018-12-19T14:47:51.625Z,75.97
2018-12-19T14:50:21.594Z,77.43
2018-12-19T14:52:50.731Z,76.99
2018-12-19T14:55:22.316Z,77.08
2018-12-19T14:57:51.150Z,77.39
2018-12-19T15:00:20.547Z,76.97
2018-12-19T15:02:50.120Z,77.45
2018-12-19T15:05:20.540Z,76.72
2018-12-19T15:07:49.041Z,77.51
2018-12-19T15:10:18.773Z,78.05
2018-12-19T15:12:47.459Z,78.02
2018-12-19T15:15:16.286Z,77.60
2018-12-19T15:17:46.685Z,77.82
2018-12-19T15:20:18.456Z,78.25
2018-12-19T15:22:48.615Z,78.51
2018-12-19T15:25:20.565Z,78.25
2018-12-19T15:27:50.771Z,78.86
2018-12-19T15:30:20.917Z,78.58
2018-12-19T15:32:50.990Z,75.71
2018-12-19T15:35:21.295Z,75.30
2018-12-19T15:37:50.235Z,72.07
2018-12-19T15:40:20.137Z,72.33
2018-12-19T15:42:51.616Z,73.84
2018-12-19T15:45:22.900Z,72.86
2018-12-19T15:47:51.810Z,73.30
2018-12-19T15:50:20.623Z,72.32
2018-12-19T15:52:49.188Z,71.45
2018-12-19T15:55:20.263Z,71.48
2018-12-19T15:57:52.452Z,70.09
2018-12-19T16:00:21.658Z,70.00
2018-12-19T16:02:51.942Z,69.47
2018-12-19T16:05:21.286Z,70.26
2018-12-19T16:07:49.815Z,71.04
2018-12-19T16:10:18.862Z,70.93
2018-12-19T16:12:50.267Z,70.88
2018-12-19T16:15:19.794Z,69.15
2018-12-19T16:17:49.992Z,68.50
2018-12-19T16:20:19.616Z,67.73
2018-12-19T16:22:51.533Z,67.01
2018-12-19T16:25:21.951Z,67.10
2018-12-19T16:27:52.653Z,67.52
2018-12-19T16:30:21.717Z,67.26
2018-12-19T16:32:51.205Z,67.76
2018-12-19T16:35:19.828Z,66.69
2018-12-19T16:37:49.574Z,65.82
2018-12-19T16:40:20.920Z,63.86
2018-12-19T16:42:49.556Z,63.55
2018-12-19T16:45:18.782Z,63.47
2018-12-19T16:47:47.718Z,63.68
2018-12-19T16:50:18.200Z,65.02
2018-12-19T16:52:49.890Z,64.31
2018-12-19T16:55:18.998Z,64.29
2018-12-19T16:57:48.558Z,64.41
2018-12-19T17:00:17.114Z,64.74
2018-12-19T17:03:18.150Z,63.46
2018-12-19T17:05:47.600Z,62.83
2018-12-19T17:08:18.014Z,66.11
2018-12-19T17:10:48.998Z,64.41
2018-12-19T17:13:20.102Z,64.44
2018-12-19T17:15:49.711Z,64.29
2018-12-19T17:18:20.008Z,63.00
2018-12-19T17:20:51.974Z,63.33
2018-12-19T17:23:22.104Z,62.69
2018-12-19T17:25:50.694Z,67.36
2018-12-19T17:28:19.145Z,71.18
2018-12-19T17:30:48.188Z,72.79
2018-12-19T17:33:17.129Z,71.78
2018-12-19T17:35:45.932Z,70.32
2018-12-19T17:38:14.923Z,69.75
2018-12-19T17:40:44.028Z,69.49
2018-12-19T17:43:12.919Z,71.04
2018-12-19T17:45:43.471Z,67.82
2018-12-19T17:48:13.084Z,66.51
2018-12-19T17:50:42.062Z,66.60
2018-12-19T17:53:13.014Z,66.67
2018-12-19T17:55:42.354Z,66.12
2018-12-19T17:58:13.326Z,67.49
2018-12-19T18:00:42.866Z,66.53
2018-12-19T18:03:12.961Z,68.56
2018-12-19T18:05:41.728Z,70.01
2018-12-19T18:08:10.707Z,69.58
2018-12-19T18:10:40.142Z,67.88
2018-12-19T18:13:09.838Z,66.76
2018-12-19T18:15:40.961Z,66.22
2018-12-19T18:18:10.932Z,65.18
2018-12-19T18:20:40.851Z,64.70
2018-12-19T18:23:10.104Z,64.47
2018-12-19T18:25:40.105Z,64.19
2018-12-19T18:28:10.117Z,65.05
2018-12-19T18:30:39.635Z,67.53
2018-12-19T18:33:09.366Z,67.75
2018-12-19T18:35:39.363Z,68.65
2018-12-19T18:38:09.139Z,71.11
2018-12-19T18:40:38.572Z,71.35
2018-12-19T18:43:12.967Z,72.91
2018-12-19T18:45:41.622Z,75.20
2018-12-19T18:48:12.107Z,76.20
2018-12-19T18:50:41.944Z,75.43
2018-12-19T18:53:11.560Z,76.59
2018-12-19T18:55:41.652Z,76.72
2018-12-19T18:58:12.254Z,76.43
2018-12-19T19:00:43.340Z,77.67
2018-12-19T19:03:12.767Z,77.50
2018-12-19T19:05:42.970Z,76.42
2018-12-19T19:08:13.077Z,76.69
2018-12-19T19:10:42.048Z,78.23
2018-12-19T19:13:11.566Z,77.88
2018-12-19T19:15:42.775Z,78.45
2018-12-19T19:18:12.835Z,77.84
2018-12-19T19:20:41.813Z,78.06
2018-12-19T19:23:10.534Z,77.21
2018-12-19T19:25:40.422Z,78.39
2018-12-19T19:28:12.047Z,78.54
2018-12-19T19:30:40.502Z,77.94
2018-12-19T19:33:10.559Z,78.72
2018-12-19T19:35:40.164Z,78.36
2018-12-19T19:38:23.732Z,77.45
2018-12-19T19:40:56.732Z,77.53
2018-12-19T19:43:27.386Z,77.99
2018-12-19T19:45:56.093Z,76.54
2018-12-19T19:48:26.558Z,75.48
2018-12-19T19:50:56.147Z,77.56
2018-12-19T19:53:25.018Z,76.28
2018-12-19T19:55:55.568Z,76.51
2018-12-19T19:58:25.916Z,77.53
2018-12-19T20:00:57.271Z,76.39
2018-12-19T20:03:27.917Z,76.34
2018-12-19T20:05:56.560Z,77.66
2018-12-19T20:08:32.570Z,76.19
2018-12-19T20:11:01.822Z,76.96
2018-12-19T20:13:33.474Z,77.96
2018-12-19T20:16:07.520Z,79.88
2018-12-19T20:18:37.287Z,79.74
2018-12-19T20:21:06.709Z,79.42
2018-12-19T20:23:35.951Z,79.23
2018-12-19T20:26:05.574Z,79.48
2018-12-19T20:28:38.049Z,79.27
2018-12-19T20:31:09.242Z,80.28
2018-12-19T20:33:41.543Z,80.59
2018-12-19T20:36:11.238Z,80.12
2018-12-19T20:38:42.342Z,80.18
2018-12-19T20:41:11.850Z,81.50
2018-12-19T20:43:41.283Z,80.52
2018-12-19T20:46:11.482Z,80.80
2018-12-19T20:48:41.350Z,81.27
2018-12-19T20:51:10.671Z,80.37
2018-12-19T20:53:39.166Z,80.41
2018-12-19T20:56:08.647Z,80.32
2018-12-19T20:58:37.859Z,78.51
2018-12-19T21:01:07.299Z,78.14
2018-12-19T21:03:36.852Z,79.11
2018-12-19T21:06:05.862Z,78.78
2018-12-19T21:08:35.642Z,78.42
2018-12-19T21:11:04.833Z,78.27
2018-12-19T21:13:33.251Z,78.18
2018-12-19T21:16:02.596Z,77.35
2018-12-19T21:18:38.799Z,77.24
2018-12-19T21:21:07.306Z,78.27
2018-12-19T21:23:37.817Z,77.24
2018-12-19T21:26:07.339Z,77.20
2018-12-19T21:28:37.378Z,76.67
2018-12-19T21:31:07.200Z,76.69
2018-12-19T21:33:35.686Z,78.69
2018-12-19T21:36:06.182Z,78.61
2018-12-19T21:38:35.752Z,77.63
2018-12-19T21:41:07.777Z,77.98
2018-12-19T21:43:37.195Z,77.97
2018-12-19T21:46:06.597Z,78.15
2018-12-19T21:48:35.427Z,76.76
2018-12-19T21:51:06.546Z,76.75
2018-12-19T21:53:37.717Z,75.69
2018-12-19T21:56:10.216Z,78.72
2018-12-19T21:58:39.167Z,78.05
2018-12-19T22:01:09.055Z,80.66
2018-12-19T22:03:37.534Z,80.37
2018-12-19T22:06:07.334Z,79.81
2018-12-19T22:08:36.451Z,80.85
2018-12-19T22:11:05.434Z,79.38
2018-12-19T22:13:37.785Z,78.95
2018-12-19T22:16:10.038Z,79.62
2018-12-19T22:18:46.922Z,78.96
2018-12-19T22:21:16.834Z,78.53
2018-12-19T22:23:45.677Z,77.99
2018-12-19T22:26:19.490Z,77.68
2018-12-19T22:28:49.021Z,79.51
2018-12-19T22:31:20.147Z,77.78
2018-12-19T22:33:50.095Z,77.63
2018-12-19T22:36:20.572Z,77.57
2018-12-19T22:38:50.150Z,77.39
2018-12-19T22:41:21.401Z,77.11
2018-12-19T22:43:51.337Z,78.47
2018-12-19T22:46:20.899Z,78.72
2018-12-19T22:48:50.325Z,78.25
2018-12-19T22:51:20.955Z,79.40
2018-12-19T22:53:50.658Z,78.75
2018-12-19T22:56:20.091Z,79.89
2018-12-19T22:58:48.645Z,78.82
2018-12-19T23:01:22.863Z,78.47
2018-12-19T23:03:56.740Z,77.25
2018-12-19T23:06:26.534Z,78.05
2018-12-19T23:08:55.125Z,77.74
2018-12-19T23:11:24.869Z,78.22
2018-12-19T23:13:56.641Z,79.56
2018-12-19T23:16:25.615Z,78.36
2018-12-19T23:18:56.476Z,77.38
2018-12-19T23:21:25.090Z,77.65
2018-12-19T23:23:55.363Z,77.71
2018-12-19T23:26:27.194Z,76.92
2018-12-19T23:29:01.171Z,77.23
2018-12-19T23:31:30.044Z,78.43
2018-12-19T23:33:59.022Z,77.94
2018-12-19T23:36:30.428Z,77.33
2018-12-19T23:39:00.308Z,76.28
2018-12-19T23:41:30.967Z,75.70
2018-12-19T23:44:00.209Z,75.90
2018-12-19T23:46:32.533Z,75.89
2018-12-19T23:49:02.439Z,73.93
2018-12-19T23:51:32.132Z,75.13
2018-12-19T23:54:01.203Z,75.37
2018-12-19T23:56:30.978Z,75.01
2018-12-19T23:59:01.585Z,76.63
